This is the latest recevied weather packets stored in our database for station/object N8TWM-13. If no packets are shown the sender has not sent any weather packets the latest 10 day(s).
| Time | Temp. | Humidity | Pressure | Rain* | Wind** | Luminosity | Snow |
|---|---|---|---|---|---|---|---|
| 1778012349 | 14.44° C | 92% | 1008 hPa | 1.27 mm | - | 91 W/m² | - |
| 1778012046 | 14.44° C | 92% | 1008.1 hPa | 4.83 mm | - | 68 W/m² | - |
| 1778011745 | 14.44° C | 91% | 1008.3 hPa | 3.56 mm | - | 82 W/m² | - |
| 1778011441 | 14.44° C | 91% | 1008.3 hPa | 0 mm | - | 32 W/m² | - |
| 1778011137 | 15° C | 91% | 1008.5 hPa | 1.27 mm | - | 26 W/m² | - |
| 1778010834 | 15° C | 91% | 1008.3 hPa | 1.27 mm | - | 45 W/m² | - |
| 1778010531 | 15° C | 90% | 1008.3 hPa | 0 mm | - | 41 W/m² | - |
| 1778010229 | 15° C | 90% | 1008.3 hPa | 3.05 mm | - | 46 W/m² | - |
| 1778009923 | 15° C | 89% | 1008.7 hPa | 7.87 mm | - | 25 W/m² | - |
| 1778009622 | 15.56° C | 87% | 1008.4 hPa | 7.87 mm | - | 24 W/m² | - |
| 1778009319 | 16.11° C | 85% | 1008.4 hPa | 4.83 mm | - | 60 W/m² | - |
| 1778009017 | 16.67° C | 83% | 1008.6 hPa | 0 mm | - | 45 W/m² | - |
| 1778008714 | 16.67° C | 83% | 1008.3 hPa | 0 mm | - | 55 W/m² | - |
| 1778008413 | 16.67° C | 82% | 1008.4 hPa | 0 mm | - | 72 W/m² | - |
| 1778008109 | 16.67° C | 82% | 1008.1 hPa | 0 mm | - | 76 W/m² | - |
| 1778007804 | 16.67° C | 82% | 1008.1 hPa | 0 mm | - | 162 W/m² | - |
| 1778007500 | 17.22° C | 81% | 1008.1 hPa | 0 mm | - | 168 W/m² | - |
| 1778007197 | 17.78° C | 81% | 1008.4 hPa | 0 mm | - | 233 W/m² | - |
| 1778006893 | 17.78° C | 80% | 1008.5 hPa | 0 mm | - | 285 W/m² | - |
| 1778006590 | 17.78° C | 81% | 1008.3 hPa | 0 mm | - | 278 W/m² | - |
| 1778006287 | 17.22° C | 81% | 1008.3 hPa | 0 mm | - | 287 W/m² | - |
| 1778005984 | 17.22° C | 82% | 1008.1 hPa | 1.27 mm | - | 239 W/m² | - |
| 1778005681 | 17.22° C | 80% | 1008.4 hPa | 1.27 mm | - | 95 W/m² | - |
| 1778005377 | 18.33° C | 77% | 1008.3 hPa | 1.27 mm | - | 38 W/m² | - |
| 1778005074 | 18.89° C | 73% | 1008.3 hPa | 0 mm | - | 23 W/m² | - |
* Rain latest hour (hover to see other rain measurements)
** Current wind speed in m/s (hover to see current wind gust speed)